sensor_id;sensor_type;location;lat;lon;timestamp;pressure;altitude;pressure_sealevel;temperature;humidity
6134;BME280;3098;42.678;23.364;2023-04-27T00:00:00;94592.06;;;7.68;69.40
6134;BME280;3098;42.678;23.364;2023-04-27T00:02:27;94492.88;;;7.18;69.26
6134;BME280;3098;42.678;23.364;2023-04-27T00:04:56;94601.59;;;7.78;69.13
6134;BME280;3098;42.678;23.364;2023-04-27T00:07:23;94602.22;;;7.75;68.96
6134;BME280;3098;42.678;23.364;2023-04-27T00:09:50;94542.19;;;7.31;68.94
6134;BME280;3098;42.678;23.364;2023-04-27T00:12:17;94605.16;;;7.73;68.58
6134;BME280;3098;42.678;23.364;2023-04-27T00:14:44;94611.13;;;7.65;69.02
6134;BME280;3098;42.678;23.364;2023-04-27T00:17:12;94567.50;;;7.32;69.44
6134;BME280;3098;42.678;23.364;2023-04-27T00:19:39;94533.00;;;7.01;69.40
6134;BME280;3098;42.678;23.364;2023-04-27T00:22:07;94613.38;;;7.58;69.41
6134;BME280;3098;42.678;23.364;2023-04-27T00:24:34;94616.91;;;7.53;69.80
6134;BME280;3098;42.678;23.364;2023-04-27T00:27:01;94563.28;;;7.17;69.90
6134;BME280;3098;42.678;23.364;2023-04-27T00:29:28;94610.66;;;7.36;70.08
6134;BME280;3098;42.678;23.364;2023-04-27T00:31:55;94594.84;;;7.22;70.48
6134;BME280;3098;42.678;23.364;2023-04-27T00:34:23;94570.81;;;7.10;70.76
6134;BME280;3098;42.678;23.364;2023-04-27T00:36:50;94614.88;;;7.23;71.18
6134;BME280;3098;42.678;23.364;2023-04-27T00:39:18;94601.19;;;7.08;71.34
6134;BME280;3098;42.678;23.364;2023-04-27T00:41:45;94537.38;;;6.65;71.52
6134;BME280;3098;42.678;23.364;2023-04-27T00:44:12;94627.06;;;7.06;71.74
6134;BME280;3098;42.678;23.364;2023-04-27T00:46:39;94624.53;;;7.01;71.90
6134;BME280;3098;42.678;23.364;2023-04-27T00:49:06;94634.88;;;6.97;72.29
6134;BME280;3098;42.678;23.364;2023-04-27T00:51:34;94628.13;;;6.91;72.83
6134;BME280;3098;42.678;23.364;2023-04-27T00:54:02;94629.06;;;6.81;72.80
6134;BME280;3098;42.678;23.364;2023-04-27T00:56:31;94633.66;;;6.76;73.78
6134;BME280;3098;42.678;23.364;2023-04-27T00:58:58;94632.69;;;6.72;73.80
6134;BME280;3098;42.678;23.364;2023-04-27T01:01:25;94598.31;;;6.31;74.24
6134;BME280;3098;42.678;23.364;2023-04-27T01:03:52;94634.69;;;6.61;74.19
6134;BME280;3098;42.678;23.364;2023-04-27T01:06:20;94631.59;;;6.41;74.24
6134;BME280;3098;42.678;23.364;2023-04-27T01:08:47;94634.38;;;6.49;75.16
6134;BME280;3098;42.678;23.364;2023-04-27T01:11:14;94642.94;;;6.41;75.69
6134;BME280;3098;42.678;23.364;2023-04-27T01:13:43;94609.00;;;6.21;75.27
6134;BME280;3098;42.678;23.364;2023-04-27T01:16:10;94638.03;;;6.34;75.91
6134;BME280;3098;42.678;23.364;2023-04-27T01:18:37;94635.38;;;6.34;76.23
6134;BME280;3098;42.678;23.364;2023-04-27T01:21:05;94607.06;;;6.08;76.76
6134;BME280;3098;42.678;23.364;2023-04-27T01:23:34;94548.75;;;5.63;77.19
6134;BME280;3098;42.678;23.364;2023-04-27T01:26:01;94639.25;;;6.23;77.38
6134;BME280;3098;42.678;23.364;2023-04-27T01:28:28;94585.31;;;5.84;77.34
6134;BME280;3098;42.678;23.364;2023-04-27T01:30:55;94450.72;;;4.83;77.22
6134;BME280;3098;42.678;23.364;2023-04-27T01:33:23;94648.06;;;6.14;78.03
6134;BME280;3098;42.678;23.364;2023-04-27T01:35:51;94498.31;;;5.00;78.38
6134;BME280;3098;42.678;23.364;2023-04-27T01:38:18;94622.50;;;5.77;79.03
6134;BME280;3098;42.678;23.364;2023-04-27T01:40:46;94658.38;;;5.92;79.36
6134;BME280;3098;42.678;23.364;2023-04-27T01:43:13;94604.34;;;5.57;79.59
6134;BME280;3098;42.678;23.364;2023-04-27T01:45:41;94586.63;;;5.44;79.39
6134;BME280;3098;42.678;23.364;2023-04-27T01:48:08;94594.03;;;5.42;79.20
6134;BME280;3098;42.678;23.364;2023-04-27T01:50:36;94640.44;;;5.75;79.33
6134;BME280;3098;42.678;23.364;2023-04-27T01:53:03;94626.81;;;5.68;79.05
6134;BME280;3098;42.678;23.364;2023-04-27T01:55:31;94661.47;;;5.75;78.73
6134;BME280;3098;42.678;23.364;2023-04-27T01:58:00;94621.13;;;5.61;78.69
6134;BME280;3098;42.678;23.364;2023-04-27T02:00:27;94660.34;;;5.81;79.46
6134;BME280;3098;42.678;23.364;2023-04-27T02:02:54;94547.38;;;5.10;79.46
6134;BME280;3098;42.678;23.364;2023-04-27T02:05:22;94642.69;;;5.63;79.03
6134;BME280;3098;42.678;23.364;2023-04-27T02:07:49;94636.06;;;5.65;79.04
6134;BME280;3098;42.678;23.364;2023-04-27T02:10:16;94662.25;;;5.75;79.41
6134;BME280;3098;42.678;23.364;2023-04-27T02:12:43;94667.22;;;5.77;78.94
6134;BME280;3098;42.678;23.364;2023-04-27T02:15:12;94648.44;;;5.65;79.13
6134;BME280;3098;42.678;23.364;2023-04-27T02:17:39;94667.06;;;5.68;78.96
6134;BME280;3098;42.678;23.364;2023-04-27T02:20:09;94667.31;;;5.72;78.96
6134;BME280;3098;42.678;23.364;2023-04-27T02:22:40;94668.66;;;5.69;78.84
6134;BME280;3098;42.678;23.364;2023-04-27T02:25:08;94666.84;;;5.65;79.04
6134;BME280;3098;42.678;23.364;2023-04-27T02:27:36;94594.63;;;5.15;79.75
6134;BME280;3098;42.678;23.364;2023-04-27T02:30:04;94653.59;;;5.51;79.79
6134;BME280;3098;42.678;23.364;2023-04-27T02:32:33;94668.03;;;5.54;79.78
6134;BME280;3098;42.678;23.364;2023-04-27T02:35:01;94675.94;;;5.54;79.71
6134;BME280;3098;42.678;23.364;2023-04-27T02:37:29;94580.34;;;4.97;79.79
6134;BME280;3098;42.678;23.364;2023-04-27T02:39:56;94584.22;;;5.05;79.69
6134;BME280;3098;42.678;23.364;2023-04-27T02:42:23;94669.31;;;5.56;79.51
6134;BME280;3098;42.678;23.364;2023-04-27T02:44:50;94666.69;;;5.56;79.81
6134;BME280;3098;42.678;23.364;2023-04-27T02:47:18;94658.88;;;5.51;79.51
6134;BME280;3098;42.678;23.364;2023-04-27T02:49:46;94675.38;;;5.57;79.05
6134;BME280;3098;42.678;23.364;2023-04-27T02:52:13;94526.41;;;4.57;79.30
6134;BME280;3098;42.678;23.364;2023-04-27T02:54:40;94663.91;;;5.48;78.68
6134;BME280;3098;42.678;23.364;2023-04-27T02:57:07;94639.63;;;5.32;78.71
6134;BME280;3098;42.678;23.364;2023-04-27T02:59:35;94609.88;;;5.13;77.98
6134;BME280;3098;42.678;23.364;2023-04-27T03:02:08;94676.94;;;5.58;77.58
6134;BME280;3098;42.678;23.364;2023-04-27T03:04:35;94681.09;;;5.64;77.13
6134;BME280;3098;42.678;23.364;2023-04-27T03:07:04;94540.16;;;4.73;76.80
6134;BME280;3098;42.678;23.364;2023-04-27T03:09:31;94663.91;;;5.48;77.10
6134;BME280;3098;42.678;23.364;2023-04-27T03:11:58;94612.00;;;5.11;77.49
6134;BME280;3098;42.678;23.364;2023-04-27T03:14:25;94663.75;;;5.39;78.17
6134;BME280;3098;42.678;23.364;2023-04-27T03:16:52;94692.25;;;5.56;77.71
6134;BME280;3098;42.678;23.364;2023-04-27T03:19:20;94700.88;;;5.56;78.22
6134;BME280;3098;42.678;23.364;2023-04-27T03:21:47;94616.25;;;4.83;78.44
6134;BME280;3098;42.678;23.364;2023-04-27T03:24:17;94661.06;;;5.20;78.47
6134;BME280;3098;42.678;23.364;2023-04-27T03:26:46;94635.94;;;5.09;78.35
6134;BME280;3098;42.678;23.364;2023-04-27T03:29:13;94596.84;;;4.79;77.79
6134;BME280;3098;42.678;23.364;2023-04-27T03:31:40;94678.03;;;5.33;77.94
6134;BME280;3098;42.678;23.364;2023-04-27T03:34:07;94665.94;;;5.32;78.03
6134;BME280;3098;42.678;23.364;2023-04-27T03:36:33;94677.00;;;5.29;78.91
6134;BME280;3098;42.678;23.364;2023-04-27T03:39:01;94711.53;;;5.46;78.58
6134;BME280;3098;42.678;23.364;2023-04-27T03:41:29;94710.97;;;5.49;78.27
6134;BME280;3098;42.678;23.364;2023-04-27T03:43:56;94712.25;;;5.52;77.87
6134;BME280;3098;42.678;23.364;2023-04-27T03:46:24;94646.16;;;5.11;77.80
6134;BME280;3098;42.678;23.364;2023-04-27T03:48:50;94721.19;;;5.56;77.82
6134;BME280;3098;42.678;23.364;2023-04-27T03:51:18;94686.66;;;5.39;78.06
6134;BME280;3098;42.678;23.364;2023-04-27T03:53:45;94711.94;;;5.58;77.84
6134;BME280;3098;42.678;23.364;2023-04-27T03:56:12;94677.06;;;5.24;77.75
6134;BME280;3098;42.678;23.364;2023-04-27T03:58:41;94684.50;;;5.41;77.80
6134;BME280;3098;42.678;23.364;2023-04-27T04:01:08;94646.53;;;5.04;77.75
6134;BME280;3098;42.678;23.364;2023-04-27T04:03:35;94738.19;;;5.63;77.51
6134;BME280;3098;42.678;23.364;2023-04-27T04:06:03;94655.31;;;5.18;76.90
6134;BME280;3098;42.678;23.364;2023-04-27T04:08:30;94667.53;;;5.28;76.72
6134;BME280;3098;42.678;23.364;2023-04-27T04:10:58;94738.56;;;5.75;76.43
6134;BME280;3098;42.678;23.364;2023-04-27T04:13:25;94744.34;;;5.77;75.76
6134;BME280;3098;42.678;23.364;2023-04-27T04:16:01;94741.63;;;5.82;75.94
6134;BME280;3098;42.678;23.364;2023-04-27T04:18:28;94696.22;;;5.53;75.55
6134;BME280;3098;42.678;23.364;2023-04-27T04:20:55;94760.03;;;5.88;74.68
6134;BME280;3098;42.678;23.364;2023-04-27T04:23:22;94762.31;;;5.94;75.05
6134;BME280;3098;42.678;23.364;2023-04-27T04:25:49;94693.53;;;5.58;74.76
6134;BME280;3098;42.678;23.364;2023-04-27T04:28:17;94689.31;;;5.57;74.28
6134;BME280;3098;42.678;23.364;2023-04-27T04:30:43;94778.00;;;6.04;74.22
6134;BME280;3098;42.678;23.364;2023-04-27T04:33:12;94725.19;;;5.72;74.25
6134;BME280;3098;42.678;23.364;2023-04-27T04:35:40;94755.22;;;5.95;74.12
6134;BME280;3098;42.678;23.364;2023-04-27T04:38:07;94779.16;;;6.17;73.79
6134;BME280;3098;42.678;23.364;2023-04-27T04:40:34;94764.66;;;6.19;73.08
6134;BME280;3098;42.678;23.364;2023-04-27T04:43:01;94781.88;;;6.30;72.97
6134;BME280;3098;42.678;23.364;2023-04-27T04:45:29;94762.22;;;6.42;71.71
6134;BME280;3098;42.678;23.364;2023-04-27T04:47:56;94780.25;;;6.53;70.04
6134;BME280;3098;42.678;23.364;2023-04-27T04:50:27;94792.34;;;6.73;70.00
6134;BME280;3098;42.678;23.364;2023-04-27T04:52:54;94788.50;;;6.84;69.17
6134;BME280;3098;42.678;23.364;2023-04-27T04:55:21;94766.16;;;6.63;68.63
6134;BME280;3098;42.678;23.364;2023-04-27T04:57:48;94781.63;;;6.69;69.18
6134;BME280;3098;42.678;23.364;2023-04-27T05:00:16;94796.78;;;6.77;68.46
6134;BME280;3098;42.678;23.364;2023-04-27T05:02:43;94808.13;;;6.78;69.29
6134;BME280;3098;42.678;23.364;2023-04-27T05:05:10;94805.69;;;6.81;68.63
6134;BME280;3098;42.678;23.364;2023-04-27T05:07:39;94719.97;;;6.52;67.80
6134;BME280;3098;42.678;23.364;2023-04-27T05:10:07;94775.59;;;7.33;65.99
6134;BME280;3098;42.678;23.364;2023-04-27T05:12:34;94815.38;;;7.83;64.60
6134;BME280;3098;42.678;23.364;2023-04-27T05:15:01;94713.44;;;7.41;61.80
6134;BME280;3098;42.678;23.364;2023-04-27T05:17:28;94813.53;;;8.24;60.95
6134;BME280;3098;42.678;23.364;2023-04-27T05:19:55;94818.69;;;8.70;59.32
6134;BME280;3098;42.678;23.364;2023-04-27T05:22:22;94815.59;;;8.90;57.47
6134;BME280;3098;42.678;23.364;2023-04-27T05:24:51;94793.03;;;8.71;57.97
6134;BME280;3098;42.678;23.364;2023-04-27T05:27:18;94817.97;;;9.89;55.18
6134;BME280;3098;42.678;23.364;2023-04-27T05:29:46;94726.56;;;8.86;54.69
6134;BME280;3098;42.678;23.364;2023-04-27T05:32:13;94635.81;;;7.96;55.60
6134;BME280;3098;42.678;23.364;2023-04-27T05:34:40;94805.22;;;8.44;57.08
6134;BME280;3098;42.678;23.364;2023-04-27T05:37:08;94805.09;;;8.49;58.19
6134;BME280;3098;42.678;23.364;2023-04-27T05:39:37;94822.63;;;8.59;58.73
6134;BME280;3098;42.678;23.364;2023-04-27T05:42:06;94824.97;;;8.47;59.90
6134;BME280;3098;42.678;23.364;2023-04-27T05:44:34;94785.34;;;8.20;60.00
6134;BME280;3098;42.678;23.364;2023-04-27T05:47:01;94831.72;;;8.66;59.25
6134;BME280;3098;42.678;23.364;2023-04-27T05:49:28;94817.91;;;8.70;59.24
6134;BME280;3098;42.678;23.364;2023-04-27T05:51:55;94762.94;;;8.44;57.76
6134;BME280;3098;42.678;23.364;2023-04-27T05:54:23;94831.41;;;8.54;59.50
6134;BME280;3098;42.678;23.364;2023-04-27T05:56:52;94737.81;;;7.79;59.41
6134;BME280;3098;42.678;23.364;2023-04-27T05:59:20;94786.16;;;7.47;61.46
6134;BME280;3098;42.678;23.364;2023-04-27T06:01:47;94760.66;;;7.42;62.72
6134;BME280;3098;42.678;23.364;2023-04-27T06:04:15;94787.59;;;7.85;62.03
6134;BME280;3098;42.678;23.364;2023-04-27T06:06:41;94755.91;;;7.99;62.70
6134;BME280;3098;42.678;23.364;2023-04-27T06:09:09;94800.72;;;8.81;60.11
6134;BME280;3098;42.678;23.364;2023-04-27T06:11:36;94835.78;;;9.22;58.13
6134;BME280;3098;42.678;23.364;2023-04-27T06:14:03;94834.06;;;9.48;57.31
6134;BME280;3098;42.678;23.364;2023-04-27T06:16:33;94776.59;;;9.18;56.68
6134;BME280;3098;42.678;23.364;2023-04-27T06:19:00;94836.50;;;9.58;56.73
6134;BME280;3098;42.678;23.364;2023-04-27T06:21:27;94843.03;;;9.61;55.04
6134;BME280;3098;42.678;23.364;2023-04-27T06:23:56;94792.56;;;9.57;54.97
6134;BME280;3098;42.678;23.364;2023-04-27T06:26:23;94809.84;;;9.86;54.35
6134;BME280;3098;42.678;23.364;2023-04-27T06:28:50;94830.03;;;10.04;53.74
6134;BME280;3098;42.678;23.364;2023-04-27T06:31:18;94792.16;;;10.03;52.80
6134;BME280;3098;42.678;23.364;2023-04-27T06:33:47;94801.78;;;10.30;52.99
6134;BME280;3098;42.678;23.364;2023-04-27T06:36:14;94825.41;;;10.57;51.66
6134;BME280;3098;42.678;23.364;2023-04-27T06:38:41;94799.06;;;10.69;50.80
6134;BME280;3098;42.678;23.364;2023-04-27T06:41:08;94777.56;;;11.86;49.41
6134;BME280;3098;42.678;23.364;2023-04-27T06:43:35;94679.78;;;12.71;45.84
6134;BME280;3098;42.678;23.364;2023-04-27T06:46:03;94817.03;;;14.56;42.77
6134;BME280;3098;42.678;23.364;2023-04-27T06:48:31;94813.38;;;16.24;39.02
6134;BME280;3098;42.678;23.364;2023-04-27T06:51:00;94642.16;;;15.45;37.30
6134;BME280;3098;42.678;23.364;2023-04-27T06:53:27;94820.44;;;15.57;38.97
6134;BME280;3098;42.678;23.364;2023-04-27T06:55:54;94663.25;;;14.64;38.46
6134;BME280;3098;42.678;23.364;2023-04-27T06:58:21;94809.50;;;16.68;36.40
6134;BME280;3098;42.678;23.364;2023-04-27T07:00:49;94817.28;;;16.42;35.84
6134;BME280;3098;42.678;23.364;2023-04-27T07:03:16;94793.88;;;17.43;34.63
6134;BME280;3098;42.678;23.364;2023-04-27T07:05:43;94808.88;;;15.96;35.93
6134;BME280;3098;42.678;23.364;2023-04-27T07:08:13;94811.28;;;15.86;36.95
6134;BME280;3098;42.678;23.364;2023-04-27T07:10:40;94639.63;;;14.78;36.28
6134;BME280;3098;42.678;23.364;2023-04-27T07:13:07;94652.09;;;14.62;36.22
6134;BME280;3098;42.678;23.364;2023-04-27T07:15:35;94766.19;;;14.89;37.04
6134;BME280;3098;42.678;23.364;2023-04-27T07:18:04;94676.22;;;15.05;36.68
6134;BME280;3098;42.678;23.364;2023-04-27T07:20:32;94694.09;;;13.89;37.63
6134;BME280;3098;42.678;23.364;2023-04-27T07:23:00;94762.84;;;14.80;37.79
6134;BME280;3098;42.678;23.364;2023-04-27T07:25:30;94607.44;;;13.82;37.17
6134;BME280;3098;42.678;23.364;2023-04-27T07:27:57;94810.13;;;14.79;37.38
6134;BME280;3098;42.678;23.364;2023-04-27T07:30:25;94816.13;;;14.88;37.22
6134;BME280;3098;42.678;23.364;2023-04-27T07:32:55;94799.41;;;13.50;39.35
6134;BME280;3098;42.678;23.364;2023-04-27T07:35:22;94734.16;;;13.02;39.33
6134;BME280;3098;42.678;23.364;2023-04-27T07:37:49;94810.19;;;13.53;38.83
6134;BME280;3098;42.678;23.364;2023-04-27T07:40:18;94736.72;;;13.76;39.09
6134;BME280;3098;42.678;23.364;2023-04-27T07:42:50;94629.38;;;12.86;39.47
6134;BME280;3098;42.678;23.364;2023-04-27T07:45:17;94805.56;;;13.00;40.03
6134;BME280;3098;42.678;23.364;2023-04-27T07:47:45;94801.44;;;13.32;41.15
6134;BME280;3098;42.678;23.364;2023-04-27T07:50:12;94799.59;;;13.03;40.42
6134;BME280;3098;42.678;23.364;2023-04-27T07:52:41;94629.84;;;11.47;41.45
6134;BME280;3098;42.678;23.364;2023-04-27T07:55:09;94776.75;;;13.02;40.59
6134;BME280;3098;42.678;23.364;2023-04-27T07:57:36;94799.25;;;14.72;38.88
6134;BME280;3098;42.678;23.364;2023-04-27T08:00:06;94822.03;;;15.74;36.27
6134;BME280;3098;42.678;23.364;2023-04-27T08:02:34;94803.13;;;16.92;34.50
6134;BME280;3098;42.678;23.364;2023-04-27T08:05:02;94798.25;;;17.32;33.52
6134;BME280;3098;42.678;23.364;2023-04-27T08:07:29;94793.38;;;17.95;31.59
6134;BME280;3098;42.678;23.364;2023-04-27T08:09:56;94789.44;;;15.28;35.37
6134;BME280;3098;42.678;23.364;2023-04-27T08:12:23;94753.09;;;15.67;35.17
6134;BME280;3098;42.678;23.364;2023-04-27T08:14:50;94801.75;;;15.05;36.36
6134;BME280;3098;42.678;23.364;2023-04-27T08:17:21;94802.78;;;14.88;36.40
6134;BME280;3098;42.678;23.364;2023-04-27T08:19:48;94696.97;;;14.20;36.34
6134;BME280;3098;42.678;23.364;2023-04-27T08:22:16;94671.00;;;15.83;34.52
6134;BME280;3098;42.678;23.364;2023-04-27T08:24:43;94752.06;;;16.50;33.34
6134;BME280;3098;42.678;23.364;2023-04-27T08:27:10;94797.38;;;15.52;35.25
6134;BME280;3098;42.678;23.364;2023-04-27T08:29:37;94745.06;;;15.67;34.92
6134;BME280;3098;42.678;23.364;2023-04-27T08:32:05;94765.78;;;15.15;35.50
6134;BME280;3098;42.678;23.364;2023-04-27T08:34:36;94798.00;;;14.94;36.31
6134;BME280;3098;42.678;23.364;2023-04-27T08:37:04;94798.72;;;16.33;35.91
6134;BME280;3098;42.678;23.364;2023-04-27T08:39:31;94724.97;;;17.44;32.82
6134;BME280;3098;42.678;23.364;2023-04-27T08:41:58;94774.91;;;18.58;31.49
6134;BME280;3098;42.678;23.364;2023-04-27T08:44:25;94569.56;;;17.05;31.20
6134;BME280;3098;42.678;23.364;2023-04-27T08:46:53;94691.97;;;18.53;30.57
6134;BME280;3098;42.678;23.364;2023-04-27T08:49:20;94632.13;;;18.30;30.42
6134;BME280;3098;42.678;23.364;2023-04-27T08:51:49;94780.44;;;19.55;29.94
6134;BME280;3098;42.678;23.364;2023-04-27T08:54:16;94777.03;;;19.02;30.06
6134;BME280;3098;42.678;23.364;2023-04-27T08:56:45;94661.84;;;15.53;32.93
6134;BME280;3098;42.678;23.364;2023-04-27T08:59:15;94773.59;;;15.35;35.76
6134;BME280;3098;42.678;23.364;2023-04-27T09:01:43;94804.03;;;15.59;35.72
6134;BME280;3098;42.678;23.364;2023-04-27T09:04:13;94802.66;;;14.97;37.01
6134;BME280;3098;42.678;23.364;2023-04-27T09:06:41;94708.59;;;15.31;35.64
6134;BME280;3098;42.678;23.364;2023-04-27T09:09:20;94722.41;;;16.08;34.92
6134;BME280;3098;42.678;23.364;2023-04-27T09:11:48;94803.81;;;16.54;34.45
6134;BME280;3098;42.678;23.364;2023-04-27T09:14:18;94782.75;;;16.37;34.05
6134;BME280;3098;42.678;23.364;2023-04-27T09:16:52;94719.72;;;16.08;33.79
6134;BME280;3098;42.678;23.364;2023-04-27T09:19:25;94618.31;;;15.09;34.96
6134;BME280;3098;42.678;23.364;2023-04-27T09:22:02;94562.47;;;13.69;35.55
6134;BME280;3098;42.678;23.364;2023-04-27T09:24:31;94786.09;;;14.91;36.28
6134;BME280;3098;42.678;23.364;2023-04-27T09:26:59;94785.34;;;15.19;36.32
6134;BME280;3098;42.678;23.364;2023-04-27T09:29:31;94789.97;;;14.94;36.58
6134;BME280;3098;42.678;23.364;2023-04-27T09:31:59;94756.41;;;13.84;37.87
6134;BME280;3098;42.678;23.364;2023-04-27T09:34:37;94789.34;;;12.93;39.83
6134;BME280;3098;42.678;23.364;2023-04-27T09:37:05;94748.63;;;12.93;40.19
6134;BME280;3098;42.678;23.364;2023-04-27T09:39:36;94788.22;;;14.74;38.10
6134;BME280;3098;42.678;23.364;2023-04-27T09:42:04;94742.28;;;15.20;35.89
6134;BME280;3098;42.678;23.364;2023-04-27T09:44:32;94771.66;;;15.20;36.71
6134;BME280;3098;42.678;23.364;2023-04-27T09:47:00;94736.16;;;15.35;35.99
6134;BME280;3098;42.678;23.364;2023-04-27T09:49:28;94703.84;;;16.15;33.93
6134;BME280;3098;42.678;23.364;2023-04-27T09:51:55;94676.84;;;15.30;35.72
6134;BME280;3098;42.678;23.364;2023-04-27T09:54:26;94719.88;;;14.45;36.72
6134;BME280;3098;42.678;23.364;2023-04-27T09:57:08;94687.63;;;13.77;37.21
6134;BME280;3098;42.678;23.364;2023-04-27T09:59:50;94728.44;;;14.26;36.79
6134;BME280;3098;42.678;23.364;2023-04-27T10:02:22;94744.88;;;14.04;36.93
6134;BME280;3098;42.678;23.364;2023-04-27T10:05:12;94734.31;;;13.39;37.78
6134;BME280;3098;42.678;23.364;2023-04-27T10:07:44;94722.25;;;13.20;38.22
6134;BME280;3098;42.678;23.364;2023-04-27T10:10:16;94675.81;;;12.77;38.89
6134;BME280;3098;42.678;23.364;2023-04-27T10:12:55;94722.03;;;13.13;38.74
6134;BME280;3098;42.678;23.364;2023-04-27T10:15:25;94718.66;;;13.37;39.03
6134;BME280;3098;42.678;23.364;2023-04-27T10:17:52;94743.75;;;13.36;39.11
6134;BME280;3098;42.678;23.364;2023-04-27T10:20:34;94758.53;;;13.46;38.76
6134;BME280;3098;42.678;23.364;2023-04-27T10:23:02;94701.22;;;13.28;39.41
6134;BME280;3098;42.678;23.364;2023-04-27T10:25:37;94739.75;;;13.87;39.14
6134;BME280;3098;42.678;23.364;2023-04-27T10:28:06;94738.03;;;13.58;38.12
6134;BME280;3098;42.678;23.364;2023-04-27T10:30:35;94764.50;;;13.75;38.12
6134;BME280;3098;42.678;23.364;2023-04-27T10:33:04;94699.72;;;13.63;37.58
6134;BME280;3098;42.678;23.364;2023-04-27T10:35:34;94739.69;;;14.32;37.09
6134;BME280;3098;42.678;23.364;2023-04-27T10:38:08;94747.28;;;14.82;35.92
6134;BME280;3098;42.678;23.364;2023-04-27T10:40:37;94748.03;;;14.94;36.10
6134;BME280;3098;42.678;23.364;2023-04-27T10:43:09;94752.78;;;14.61;35.82
6134;BME280;3098;42.678;23.364;2023-04-27T10:45:37;94732.66;;;14.39;36.69
6134;BME280;3098;42.678;23.364;2023-04-27T10:48:04;94762.38;;;14.38;35.54
6134;BME280;3098;42.678;23.364;2023-04-27T10:50:33;94690.31;;;13.77;35.69
6134;BME280;3098;42.678;23.364;2023-04-27T10:53:03;94678.44;;;13.18;37.01
6134;BME280;3098;42.678;23.364;2023-04-27T10:55:31;94598.00;;;12.80;37.19
6134;BME280;3098;42.678;23.364;2023-04-27T10:57:58;94754.88;;;14.68;35.79
6134;BME280;3098;42.678;23.364;2023-04-27T11:00:29;94708.78;;;15.38;34.17
6134;BME280;3098;42.678;23.364;2023-04-27T11:03:08;94706.16;;;14.98;34.55
6134;BME280;3098;42.678;23.364;2023-04-27T11:05:36;94715.88;;;15.19;34.43
6134;BME280;3098;42.678;23.364;2023-04-27T11:08:04;94710.63;;;14.55;35.13
6134;BME280;3098;42.678;23.364;2023-04-27T11:10:32;94643.78;;;13.51;35.57
6134;BME280;3098;42.678;23.364;2023-04-27T11:13:07;94714.22;;;13.98;36.64
6134;BME280;3098;42.678;23.364;2023-04-27T11:15:46;94742.66;;;14.18;35.94
6134;BME280;3098;42.678;23.364;2023-04-27T11:18:14;94669.19;;;13.60;36.17
6134;BME280;3098;42.678;23.364;2023-04-27T11:20:43;94726.41;;;13.87;35.97
6134;BME280;3098;42.678;23.364;2023-04-27T11:23:10;94684.44;;;13.96;35.93
6134;BME280;3098;42.678;23.364;2023-04-27T11:25:37;94754.31;;;13.90;36.44
6134;BME280;3098;42.678;23.364;2023-04-27T11:28:04;94712.09;;;13.35;36.98
6134;BME280;3098;42.678;23.364;2023-04-27T11:30:31;94764.66;;;13.25;37.72
6134;BME280;3098;42.678;23.364;2023-04-27T11:33:07;94756.31;;;13.15;37.75
6134;BME280;3098;42.678;23.364;2023-04-27T11:35:39;94665.31;;;12.59;37.88
6134;BME280;3098;42.678;23.364;2023-04-27T11:38:14;94760.03;;;13.67;37.50
6134;BME280;3098;42.678;23.364;2023-04-27T11:40:41;94665.53;;;13.65;36.65
6134;BME280;3098;42.678;23.364;2023-04-27T11:43:11;94743.75;;;14.29;35.81
6134;BME280;3098;42.678;23.364;2023-04-27T11:45:43;94618.75;;;13.43;36.19
6134;BME280;3098;42.678;23.364;2023-04-27T11:48:16;94475.63;;;12.47;36.70
6134;BME280;3098;42.678;23.364;2023-04-27T11:50:45;94759.31;;;14.03;36.82
6134;BME280;3098;42.678;23.364;2023-04-27T11:53:12;94558.81;;;13.13;36.32
6134;BME280;3098;42.678;23.364;2023-04-27T11:55:40;94771.66;;;14.80;36.16
6134;BME280;3098;42.678;23.364;2023-04-27T11:58:12;94659.00;;;13.99;35.30
6134;BME280;3098;42.678;23.364;2023-04-27T12:00:41;94762.22;;;14.59;36.47
6134;BME280;3098;42.678;23.364;2023-04-27T12:03:10;94708.31;;;14.17;36.20
6134;BME280;3098;42.678;23.364;2023-04-27T12:05:48;94636.09;;;13.61;37.32
6134;BME280;3098;42.678;23.364;2023-04-27T12:08:15;94774.56;;;14.51;37.09
6134;BME280;3098;42.678;23.364;2023-04-27T12:10:45;94718.97;;;13.93;36.57
6134;BME280;3098;42.678;23.364;2023-04-27T12:13:12;94765.09;;;14.05;37.05
6134;BME280;3098;42.678;23.364;2023-04-27T12:15:41;94745.06;;;13.99;36.70
6134;BME280;3098;42.678;23.364;2023-04-27T12:18:09;94699.66;;;13.27;37.65
6134;BME280;3098;42.678;23.364;2023-04-27T12:20:37;94760.75;;;13.44;37.47
6134;BME280;3098;42.678;23.364;2023-04-27T12:23:05;94738.25;;;13.53;37.94
6134;BME280;3098;42.678;23.364;2023-04-27T12:25:32;94723.38;;;13.64;37.82
6134;BME280;3098;42.678;23.364;2023-04-27T12:28:01;94718.28;;;13.71;36.46
6134;BME280;3098;42.678;23.364;2023-04-27T12:30:29;94703.69;;;13.45;36.97
6134;BME280;3098;42.678;23.364;2023-04-27T12:32:56;94767.44;;;14.07;36.87
6134;BME280;3098;42.678;23.364;2023-04-27T12:35:25;94754.75;;;14.04;37.16
6134;BME280;3098;42.678;23.364;2023-04-27T12:37:56;94682.94;;;13.62;35.93
6134;BME280;3098;42.678;23.364;2023-04-27T12:40:24;94756.84;;;13.86;36.85
6134;BME280;3098;42.678;23.364;2023-04-27T12:42:52;94732.63;;;13.91;37.33
6134;BME280;3098;42.678;23.364;2023-04-27T12:45:19;94712.41;;;13.78;36.51
6134;BME280;3098;42.678;23.364;2023-04-27T12:47:46;94746.13;;;13.50;36.96
6134;BME280;3098;42.678;23.364;2023-04-27T12:50:13;94769.34;;;13.61;37.90
6134;BME280;3098;42.678;23.364;2023-04-27T12:52:42;94773.72;;;13.78;37.26
6134;BME280;3098;42.678;23.364;2023-04-27T12:55:10;94766.13;;;13.68;37.26
6134;BME280;3098;42.678;23.364;2023-04-27T12:57:39;94721.53;;;13.32;37.88
6134;BME280;3098;42.678;23.364;2023-04-27T13:00:07;94746.16;;;13.62;37.75
6134;BME280;3098;42.678;23.364;2023-04-27T13:02:36;94765.09;;;13.93;37.61
6134;BME280;3098;42.678;23.364;2023-04-27T13:05:03;94605.25;;;12.91;37.35
6134;BME280;3098;42.678;23.364;2023-04-27T13:07:32;94730.63;;;13.88;36.88
6134;BME280;3098;42.678;23.364;2023-04-27T13:10:00;94759.91;;;14.33;36.57
6134;BME280;3098;42.678;23.364;2023-04-27T13:12:27;94703.19;;;14.36;35.65
6134;BME280;3098;42.678;23.364;2023-04-27T13:14:56;94763.78;;;14.60;36.09
6134;BME280;3098;42.678;23.364;2023-04-27T13:17:23;94742.88;;;14.01;36.35
6134;BME280;3098;42.678;23.364;2023-04-27T13:19:51;94702.34;;;13.39;37.24
6134;BME280;3098;42.678;23.364;2023-04-27T13:22:18;94756.81;;;13.74;36.98